Nearby METAR Reports

 

KCOS - Colorado Springs, Colorado, USA
Distance from station: S 6mi, 9km
Updated: Mon, 08-Aug-2022 12:54am MDT
Light rain, Overcast
Light rain, Overcast
 Wind from calm
Wind: Calm
Temperature: 63°F , 17°C
Dew Point: 61°F , 16°C
Humidity: 94%
Barometer: 30.42 inHg , 1030.1 hPa
Summary: Light rain
Clouds: Overcast
Visibility: 8 miles , 13 km
Cloud details: Overcast 9000 ft
2022/08/08 06:54 KCOS 080654Z 00000KT 8SM -RA OVC090 17/16 A3042 RMK AO2 LTG DSNT SE TSE10 SLP219 CB DSNT SE STNRY P0008 T01720156 402890172 $
KAFF - Usaf Academy/Cos, Colorado, USA
Distance from station: NW 7mi, 12km
Updated: Sun, 07-Aug-2022 11:58pm MDT
Light rain, Showers, Mostly cloudy
Light rain, Showers, Mostly cloudy
 Wind from calm
Wind: Calm
Temperature: 61°F , 16°C
Dew Point: 59°F , 15°C
Humidity: 94%
Barometer: 30.40 inHg , 1029.5 hPa
Summary: Light rain, Showers
Clouds: Mostly cloudy
Visibility: 10 miles , 16 km
Cloud details: Mostly cloudy 9000 ft
2022/08/08 05:58 KAFF 080558Z 00000KT 10SM -SHRA BKN090 16/15 A3040 RMK AO2A SLP211 60015 T01560154 10261 20154 50003
 
KFLY - Co Spngs Meadow, Colorado, USA
Distance from station: ENE 8mi, 13km
Updated: Mon, 08-Aug-2022 12:55am MDT
Light drizzle, Overcast
Light drizzle, Overcast
 Wind from WSW
Wind: WSW 3 mph , 6 km/h
Temperature: 61°F , 16°C
Dew Point: 59°F , 15°C
Humidity: 94%
Barometer: 30.45 inHg , 1031.2 hPa
Summary: Light Drizzle
Clouds: Overcast
Visibility: 10 miles , 16 km
Cloud details: Overcast 11000 ft
2022/08/08 06:55 KFLY 080655Z AUTO 25003KT 10SM -DZ OVC110 16/15 A3045 RMK AO2 T01600145 402460160
KFCS - Fort Carson, Colorado, USA
Distance from station: S 17mi, 27km
Updated: Mon, 08-Aug-2022 12:24am MDT
Light rain, Overcast
Light rain, Overcast
 Wind from N
Wind: N 7 mph , 11 km/h
Temperature: 61°F , 16°C
Dew Point: 61°F , 16°C
Humidity: 100%
Barometer: 30.36 inHg , 1028.1 hPa
Summary: Light rain
Clouds: Overcast
Visibility: 10 miles , 16 km
Cloud details: Overcast 4200 ft
2022/08/08 06:24 KFCS 080624Z AUTO 01006KT 10SM -RA OVC042 16/16 A3036 RMK AO2 TSB09E24 SLP226 $
 
KMNH - Monument/Elbert, Colorado, USA
Distance from station: N 22mi, 35km
Updated: Mon, 08-Aug-2022 12:55am MDT
Rain, Overcast
Rain, Overcast
 Wind from S
Wind: S 9 mph , 15 km/h
Temperature: 57°F , 14°C
Dew Point: 52°F , 11°C
Humidity: 82%
Barometer: 30.45 inHg , 1031.2 hPa
Summary: Rain
Clouds: Overcast
Visibility: 10 miles , 16 km
Cloud details: Partly cloudy 6500 ft
Mostly cloudy 8000 ft
Overcast 9500 ft
2022/08/08 06:55 KMNH 080655Z AUTO 19008KT 10SM RA SCT065 BKN080 OVC095 14/11 A3045 RMK AO2 P0001
K1V6 - Canon City, Colorado, USA
Distance from station: SSW 39mi, 62km
Updated: Mon, 08-Aug-2022 12:55am MDT
Overcast
Overcast
 Wind from NW
Wind: NW 8 mph , 13 km/h
Temperature: 64°F , 18°C
Dew Point: 63°F , 17°C
Humidity: 94%
Barometer: 30.34 inHg , 1027.4 hPa
Clouds: Overcast
Visibility: 10 miles , 16 km
Cloud details: Overcast 11000 ft
2022/08/08 06:55 K1V6 080655Z AUTO 31007KT 10SM OVC110 18/17 A3034 RMK AO2
 
KPUB - Pueblo, Colorado, USA
Distance from station: SSE 44mi, 71km
Updated: Mon, 08-Aug-2022 12:53am MDT
Light rain, Partly cloudy
Light rain, Partly cloudy
 Wind from N
Wind: N 5 mph , 7 km/h
Temperature: 66°F , 19°C
Dew Point: 61°F , 16°C
Humidity: 83%
Barometer: 30.30 inHg , 1026.1 hPa
Summary: Light rain
Clouds: Partly cloudy
Visibility: 10 miles , 16 km
Cloud details: Partly cloudy 9000 ft
2022/08/08 06:53 KPUB 080653Z AUTO 01004KT 10SM -RA SCT090 19/16 A3030 RMK AO2 LTG DSNT NE SLP189 P0001 T01940161 403500183
KAPA - Denver/Arapahoe, Colorado, USA
Distance from station: N 47mi, 75km
Updated: Mon, 08-Aug-2022 12:53am MDT
Mostly cloudy
Mostly cloudy
 Wind from S
Wind: S 7 mph , 11 km/h
Temperature: 63°F , 17°C
Dew Point: 57°F , 14°C
Humidity: 83%
Barometer: 30.34 inHg , 1027.4 hPa
Clouds: Mostly cloudy
Visibility: 10 miles , 16 km
Cloud details: Partly cloudy 11000 ft
Mostly cloudy 20000 ft
2022/08/08 06:53 KAPA 080653Z 19006KT 10SM SCT110 BKN200 17/14 A3034 RMK AO2 SLP206 T01670144 402830161 $